createdAt,value
2022-12-15T00:00:48.423Z,-8.70
2022-12-15T00:03:46.486Z,-8.69
2022-12-15T00:06:32.961Z,-8.70
2022-12-15T00:09:20.731Z,-8.72
2022-12-15T00:12:08.053Z,-8.75
2022-12-15T00:14:55.035Z,-8.76
2022-12-15T00:17:41.875Z,-8.87
2022-12-15T00:20:29.422Z,-8.78
2022-12-15T00:23:16.939Z,-8.78
2022-12-15T00:26:03.851Z,-8.79
2022-12-15T00:28:50.150Z,-8.79
2022-12-15T00:31:36.978Z,-8.76
2022-12-15T00:34:23.738Z,-8.76
2022-12-15T00:37:10.487Z,-8.77
2022-12-15T00:39:40.345Z,-8.78
2022-12-15T00:42:09.904Z,-8.77
2022-12-15T00:44:38.087Z,-8.77
2022-12-15T00:47:06.653Z,-8.77
2022-12-15T00:50:13.702Z,-8.81
2022-12-15T00:53:00.671Z,-8.86
2022-12-15T00:55:47.313Z,-8.92
2022-12-15T00:58:34.140Z,-8.95
2022-12-15T01:01:28.730Z,-8.98
2022-12-15T01:04:15.685Z,-9.02
2022-12-15T01:07:02.953Z,-9.07
2022-12-15T01:09:49.377Z,-9.09
2022-12-15T01:12:36.638Z,-9.10
2022-12-15T01:15:23.963Z,-9.12
2022-12-15T01:18:11.128Z,-9.14
2022-12-15T01:20:39.702Z,-9.15
2022-12-15T01:23:07.882Z,-9.16
2022-12-15T01:25:39.561Z,-9.17
2022-12-15T01:28:07.707Z,-9.18
2022-12-15T01:30:35.850Z,-9.19
2022-12-15T01:33:04.019Z,-9.20
2022-12-15T01:35:32.363Z,-9.21
2022-12-15T01:38:00.760Z,-9.22
2022-12-15T01:40:50.223Z,-9.23
2022-12-15T01:43:22.580Z,-9.25
2022-12-15T01:45:54.081Z,-9.26
2022-12-15T01:48:30.628Z,-9.28
2022-12-15T01:51:17.229Z,-9.28
2022-12-15T01:53:54.807Z,-9.28
2022-12-15T01:56:26.385Z,-9.28
2022-12-15T01:59:00.473Z,-9.27
2022-12-15T02:01:29.757Z,-9.27
2022-12-15T02:03:58.079Z,-9.29
2022-12-15T02:06:27.242Z,-9.29
2022-12-15T02:08:58.814Z,-9.30
2022-12-15T02:11:37.518Z,-9.31
2022-12-15T02:14:11.510Z,-9.29
2022-12-15T02:17:15.208Z,-9.28
2022-12-15T02:19:52.378Z,-9.26
2022-12-15T02:22:32.674Z,-9.26
2022-12-15T02:25:16.090Z,-9.25
2022-12-15T02:28:25.798Z,-9.24
2022-12-15T02:31:22.099Z,-9.24
2022-12-15T02:34:01.822Z,-9.25
2022-12-15T02:36:45.549Z,-9.25
2022-12-15T02:39:14.409Z,-9.23
2022-12-15T02:41:46.301Z,-9.23
2022-12-15T02:44:23.234Z,-9.22
2022-12-15T02:47:16.070Z,-9.21
2022-12-15T02:50:05.731Z,-9.19
2022-12-15T02:52:46.061Z,-9.18
2022-12-15T02:55:17.270Z,-9.16
2022-12-15T02:57:53.942Z,-9.16
2022-12-15T03:00:23.109Z,-9.15
2022-12-15T03:02:54.369Z,-9.13
2022-12-15T03:05:25.050Z,-9.13
2022-12-15T03:07:54.957Z,-9.12
2022-12-15T03:10:25.556Z,-9.09
2022-12-15T03:12:55.085Z,-9.07
2022-12-15T03:15:23.771Z,-9.06
2022-12-15T03:17:52.612Z,-9.05
2022-12-15T03:20:20.956Z,-9.00
2022-12-15T03:22:49.137Z,-8.97
2022-12-15T03:25:17.358Z,-8.98
2022-12-15T03:27:46.532Z,-9.00
2022-12-15T03:30:15.155Z,-9.02
2022-12-15T03:32:43.373Z,-9.03
2022-12-15T03:35:13.096Z,-9.06
2022-12-15T03:37:43.036Z,-9.04
2022-12-15T03:40:14.095Z,-9.01
2022-12-15T03:42:48.953Z,-8.99
2022-12-15T03:45:20.948Z,-8.96
2022-12-15T03:47:50.704Z,-8.95
2022-12-15T03:50:21.455Z,-8.99
2022-12-15T03:52:55.221Z,-9.09
2022-12-15T03:55:24.345Z,-9.26
2022-12-15T03:57:52.705Z,-9.22
2022-12-15T04:00:22.066Z,-9.26
2022-12-15T04:02:52.224Z,-9.29
2022-12-15T04:05:32.398Z,-9.37
2022-12-15T04:08:01.690Z,-9.41
2022-12-15T04:10:34.760Z,-9.43
2022-12-15T04:13:11.376Z,-9.45
2022-12-15T04:15:40.861Z,-9.51
2022-12-15T04:18:11.046Z,-9.67
2022-12-15T04:20:40.479Z,-9.56
2022-12-15T04:23:08.898Z,-9.57
2022-12-15T04:25:55.810Z,-9.55
2022-12-15T04:28:42.465Z,-9.55
2022-12-15T04:31:32.051Z,-9.58
2022-12-15T04:34:22.887Z,-9.64
2022-12-15T04:37:12.148Z,-9.70
2022-12-15T04:40:06.124Z,-9.77
2022-12-15T04:42:54.504Z,-9.83
2022-12-15T04:45:43.645Z,-9.90
2022-12-15T04:48:30.381Z,-9.94
2022-12-15T04:51:17.620Z,-9.96
2022-12-15T04:54:04.609Z,-10.01
2022-12-15T04:56:54.068Z,-10.08
2022-12-15T04:59:40.893Z,-10.10
2022-12-15T05:02:27.709Z,-10.10
2022-12-15T05:05:14.285Z,-10.09
2022-12-15T05:08:01.213Z,-10.22
2022-12-15T05:10:47.926Z,-10.14
2022-12-15T05:13:35.070Z,-10.18
2022-12-15T05:16:23.439Z,-10.21
2022-12-15T05:19:10.202Z,-10.41
2022-12-15T05:21:56.714Z,-10.36
2022-12-15T05:24:43.623Z,-10.51
2022-12-15T05:27:30.471Z,-10.41
2022-12-15T05:30:17.141Z,-10.42
2022-12-15T05:32:45.301Z,-10.41
2022-12-15T05:35:13.700Z,-10.42
2022-12-15T05:37:41.859Z,-10.41
2022-12-15T05:40:10.571Z,-10.43
2022-12-15T05:42:38.710Z,-10.47
2022-12-15T05:45:07.337Z,-10.60
2022-12-15T05:47:36.038Z,-10.51
2022-12-15T05:50:04.493Z,-10.48
2022-12-15T05:52:32.830Z,-10.46
2022-12-15T05:55:01.049Z,-10.47
2022-12-15T05:57:29.257Z,-10.49
2022-12-15T05:59:57.457Z,-10.51
2022-12-15T06:02:25.766Z,-10.55
2022-12-15T06:04:54.262Z,-10.57
2022-12-15T06:07:22.777Z,-10.56
2022-12-15T06:09:50.908Z,-10.71
2022-12-15T06:12:19.115Z,-10.59
2022-12-15T06:14:47.394Z,-10.60
2022-12-15T06:17:18.163Z,-10.62
2022-12-15T06:19:46.569Z,-10.73
2022-12-15T06:22:14.917Z,-10.62
2022-12-15T06:24:43.092Z,-10.63
2022-12-15T06:27:11.388Z,-10.66
2022-12-15T06:29:39.592Z,-10.68
2022-12-15T06:32:07.820Z,-10.70
2022-12-15T06:34:36.033Z,-10.73
2022-12-15T06:37:04.697Z,-10.74
2022-12-15T06:39:32.885Z,-10.74
2022-12-15T06:42:01.065Z,-10.74
2022-12-15T06:44:29.389Z,-10.76
2022-12-15T06:46:57.793Z,-10.99
2022-12-15T06:49:25.989Z,-10.88
2022-12-15T06:51:54.118Z,-10.76
2022-12-15T06:54:22.461Z,-10.77
2022-12-15T06:56:50.887Z,-10.76
2022-12-15T06:59:19.130Z,-10.76
2022-12-15T07:01:47.716Z,-10.79
2022-12-15T07:04:16.085Z,-10.88
2022-12-15T07:06:45.444Z,-10.89
2022-12-15T07:09:17.219Z,-10.92
2022-12-15T07:11:49.380Z,-10.93
2022-12-15T07:14:17.724Z,-10.96
2022-12-15T07:16:46.328Z,-11.00
2022-12-15T07:19:14.659Z,-11.03
2022-12-15T07:21:42.996Z,-11.04
2022-12-15T07:24:13.145Z,-11.10
2022-12-15T07:26:41.865Z,-11.07
2022-12-15T07:29:10.450Z,-11.16
2022-12-15T07:31:38.954Z,-11.02
2022-12-15T07:34:07.407Z,-10.99
2022-12-15T07:36:35.639Z,-10.94
2022-12-15T07:39:05.139Z,-10.91
2022-12-15T07:41:35.655Z,-10.87
2022-12-15T07:44:04.312Z,-10.83
2022-12-15T07:46:32.971Z,-10.78
2022-12-15T07:49:01.282Z,-10.74
2022-12-15T07:51:29.824Z,-10.69
2022-12-15T07:53:58.166Z,-10.63
2022-12-15T07:56:26.455Z,-10.58
2022-12-15T07:58:54.691Z,-10.52
2022-12-15T08:01:23.007Z,-10.45
2022-12-15T08:03:51.437Z,-10.37
2022-12-15T08:06:19.819Z,-10.29
2022-12-15T08:08:50.609Z,-10.21
2022-12-15T08:11:22.839Z,-10.14
2022-12-15T08:16:40.192Z,-9.97
2022-12-15T08:19:13.079Z,-9.88
2022-12-15T08:21:43.017Z,-9.89
2022-12-15T08:24:12.058Z,-9.68
2022-12-15T08:26:42.501Z,-9.58
2022-12-15T08:32:02.168Z,-9.42
2022-12-15T08:34:31.132Z,-9.33
2022-12-15T08:36:59.560Z,-9.23
2022-12-15T08:39:28.031Z,-9.11
2022-12-15T08:41:56.483Z,-9.01
2022-12-15T08:44:25.075Z,-8.91
2022-12-15T08:46:53.757Z,-8.81
2022-12-15T08:49:22.679Z,-8.68
2022-12-15T08:51:51.604Z,-8.57
2022-12-15T08:54:20.906Z,-8.52
2022-12-15T08:56:50.125Z,-8.51
2022-12-15T08:59:19.556Z,-8.56
2022-12-15T09:01:48.598Z,-8.65
2022-12-15T09:04:17.967Z,-8.77
2022-12-15T09:06:50.710Z,-8.84
2022-12-15T09:09:19.889Z,-8.90
2022-12-15T09:11:49.295Z,-8.98
2022-12-15T09:14:25.517Z,-8.99
2022-12-15T09:16:55.735Z,-9.00
2022-12-15T09:19:24.092Z,-9.04
2022-12-15T09:21:52.371Z,-9.10
2022-12-15T09:24:32.230Z,-9.18
2022-12-15T09:27:03.561Z,-9.26
2022-12-15T09:29:32.543Z,-9.29
2022-12-15T09:32:01.185Z,-9.28
2022-12-15T09:34:30.193Z,-9.28
2022-12-15T09:36:58.689Z,-9.25
2022-12-15T09:39:27.455Z,-9.27
2022-12-15T09:41:59.373Z,-9.25
2022-12-15T09:44:32.223Z,-9.21
2022-12-15T09:47:30.710Z,-9.14
2022-12-15T09:50:03.304Z,-9.06
2022-12-15T09:52:42.677Z,-9.02
2022-12-15T09:55:23.385Z,-8.94
2022-12-15T09:57:56.269Z,-8.86
2022-12-15T10:00:26.008Z,-8.79
2022-12-15T10:03:16.441Z,-8.72
2022-12-15T10:06:07.299Z,-8.74
2022-12-15T10:08:36.979Z,-8.56
2022-12-15T10:11:13.996Z,-8.53
2022-12-15T10:13:58.682Z,-8.53
2022-12-15T10:16:50.263Z,-8.65
2022-12-15T10:19:31.297Z,-8.54
2022-12-15T10:22:00.321Z,-8.51
2022-12-15T10:27:50.871Z,-8.43
2022-12-15T10:30:19.888Z,-8.42
2022-12-15T10:32:57.998Z,-8.44
2022-12-15T10:35:31.089Z,-8.44
2022-12-15T10:38:03.874Z,-8.53
2022-12-15T10:40:52.383Z,-8.49
2022-12-15T10:43:27.658Z,-8.35
2022-12-15T10:46:13.775Z,-8.30
2022-12-15T10:48:44.631Z,-8.21
2022-12-15T10:51:22.080Z,-8.10
2022-12-15T10:54:04.755Z,-7.99
2022-12-15T10:56:34.777Z,-7.89
2022-12-15T10:59:22.814Z,-7.87
2022-12-15T11:01:52.365Z,-7.87
2022-12-15T11:04:34.184Z,-7.84
2022-12-15T11:07:04.266Z,-7.82
2022-12-15T11:09:38.736Z,-7.79
2022-12-15T11:12:50.518Z,-7.73
2022-12-15T11:15:31.349Z,-7.79
2022-12-15T11:18:11.401Z,-7.63
2022-12-15T11:20:50.782Z,-7.65
2022-12-15T11:23:28.092Z,-7.61
2022-12-15T11:26:22.630Z,-7.56
2022-12-15T11:29:00.029Z,-7.50
2022-12-15T11:31:38.542Z,-7.61
2022-12-15T11:34:17.817Z,-7.59
2022-12-15T11:37:07.461Z,-7.59
2022-12-15T11:39:49.650Z,-7.60
2022-12-15T11:42:45.064Z,-7.59
2022-12-15T11:45:22.736Z,-7.58
2022-12-15T11:47:56.482Z,-7.59
2022-12-15T11:51:06.607Z,-7.57
2022-12-15T11:53:59.516Z,-7.49
2022-12-15T11:56:33.935Z,-7.37
2022-12-15T11:59:20.829Z,-7.30
2022-12-15T12:02:03.055Z,-7.19
2022-12-15T12:08:16.269Z,-7.03
2022-12-15T12:10:47.912Z,-6.96
2022-12-15T12:13:35.601Z,-6.94
2022-12-15T12:16:35.516Z,-6.94
2022-12-15T12:19:03.827Z,-6.90
2022-12-15T12:21:40.032Z,-6.83
2022-12-15T12:24:11.273Z,-6.81
2022-12-15T12:26:51.154Z,-6.87
2022-12-15T12:29:34.518Z,-6.94
2022-12-15T12:32:40.166Z,-6.98
2022-12-15T12:35:33.212Z,-7.00
2022-12-15T12:41:06.297Z,-6.98
2022-12-15T12:43:40.405Z,-6.99
2022-12-15T12:46:20.470Z,-7.02
2022-12-15T12:49:03.732Z,-7.03
2022-12-15T12:51:33.303Z,-7.05
2022-12-15T12:54:02.410Z,-7.10
2022-12-15T12:56:39.424Z,-7.18
2022-12-15T12:59:30.864Z,-7.21
2022-12-15T13:02:14.669Z,-7.18
2022-12-15T13:04:50.116Z,-7.18
2022-12-15T13:07:36.724Z,-7.23
2022-12-15T13:10:07.845Z,-7.28
2022-12-15T13:13:15.853Z,-7.28
2022-12-15T13:15:50.929Z,-7.43
2022-12-15T13:18:25.348Z,-7.40
2022-12-15T13:20:57.741Z,-7.44
2022-12-15T13:23:27.777Z,-7.44
2022-12-15T13:25:59.182Z,-7.40
2022-12-15T13:28:38.448Z,-7.39
2022-12-15T13:31:21.877Z,-7.32
2022-12-15T13:33:50.892Z,-7.22
2022-12-15T13:36:37.630Z,-7.10
2022-12-15T13:39:12.627Z,-7.22
2022-12-15T13:42:00.324Z,-7.02
2022-12-15T13:44:35.552Z,-7.07
2022-12-15T13:47:13.754Z,-7.08
2022-12-15T13:50:01.368Z,-7.12
2022-12-15T13:55:40.749Z,-7.18
2022-12-15T13:58:09.530Z,-7.37
2022-12-15T14:00:48.715Z,-7.42
2022-12-15T14:03:20.307Z,-7.36
2022-12-15T14:05:55.527Z,-7.43
2022-12-15T14:08:27.119Z,-7.50
2022-12-15T14:10:58.928Z,-7.58
2022-12-15T14:13:35.686Z,-7.75
2022-12-15T14:16:07.807Z,-7.85
2022-12-15T14:19:04.267Z,-7.75
2022-12-15T14:21:32.692Z,-7.81
2022-12-15T14:26:50.823Z,-7.93
2022-12-15T14:29:20.372Z,-7.96
2022-12-15T14:31:53.649Z,-8.00
2022-12-15T14:34:27.301Z,-8.03
2022-12-15T14:36:59.427Z,-8.08
2022-12-15T14:39:40.695Z,-8.13
2022-12-15T14:42:19.367Z,-8.18
2022-12-15T14:44:50.868Z,-8.23
2022-12-15T14:47:28.727Z,-8.24
2022-12-15T14:50:01.347Z,-8.25
2022-12-15T14:52:35.178Z,-8.27
2022-12-15T14:55:35.197Z,-8.30
2022-12-15T14:58:36.398Z,-8.35
2022-12-15T15:01:25.464Z,-8.39
2022-12-15T15:03:10.972Z,-7.09
2022-12-15T15:03:12.826Z,-6.98
2022-12-15T15:03:14.310Z,-7.86
2022-12-15T15:04:02.480Z,-8.42
2022-12-15T15:06:40.491Z,-8.43
2022-12-15T15:09:19.211Z,-8.44
2022-12-15T15:11:50.461Z,-8.43
2022-12-15T15:14:24.005Z,-8.45
2022-12-15T15:17:22.940Z,-8.44
2022-12-15T15:20:04.040Z,-8.45
2022-12-15T15:23:08.003Z,-8.46
2022-12-15T15:25:48.909Z,-8.49
2022-12-15T15:28:20.242Z,-8.47
2022-12-15T15:30:59.537Z,-8.47
2022-12-15T15:33:28.668Z,-8.46
2022-12-15T15:36:01.881Z,-8.46
2022-12-15T15:38:38.319Z,-8.44
2022-12-15T15:41:16.457Z,-8.41
2022-12-15T15:43:46.096Z,-8.39
2022-12-15T15:46:18.450Z,-8.36
2022-12-15T15:49:01.205Z,-8.33
2022-12-15T15:51:32.396Z,-8.27
2022-12-15T15:54:11.849Z,-8.23
2022-12-15T15:56:41.765Z,-8.18
2022-12-15T15:59:16.533Z,-8.15
2022-12-15T16:01:47.351Z,-8.12
2022-12-15T16:04:16.293Z,-8.08
2022-12-15T16:06:47.519Z,-8.03
2022-12-15T16:09:17.107Z,-7.98
2022-12-15T16:11:46.783Z,-7.96
2022-12-15T16:14:17.773Z,-7.91
2022-12-15T16:16:46.672Z,-7.88
2022-12-15T16:19:15.328Z,-7.87
2022-12-15T16:21:44.003Z,-7.81
2022-12-15T16:24:18.937Z,-7.78
2022-12-15T16:26:50.575Z,-7.75
2022-12-15T16:29:20.956Z,-7.72
2022-12-15T16:31:49.770Z,-7.69
2022-12-15T16:34:20.699Z,-7.66
2022-12-15T16:36:49.635Z,-7.62
2022-12-15T16:39:32.069Z,-7.58
2022-12-15T16:42:00.989Z,-7.54
2022-12-15T16:44:30.076Z,-7.49
2022-12-15T16:46:59.707Z,-7.44
2022-12-15T16:49:33.858Z,-7.40
2022-12-15T16:52:06.644Z,-7.35
2022-12-15T16:54:35.180Z,-7.31
2022-12-15T16:57:05.748Z,-7.29
2022-12-15T16:59:37.255Z,-7.25
2022-12-15T17:02:28.230Z,-7.22
2022-12-15T17:04:57.081Z,-7.19
2022-12-15T17:07:27.892Z,-7.17
2022-12-15T17:09:56.908Z,-7.16
2022-12-15T17:12:25.872Z,-7.15
2022-12-15T17:14:54.523Z,-7.14
2022-12-15T17:17:22.911Z,-7.11
2022-12-15T17:20:27.568Z,-7.08
2022-12-15T17:22:40.790Z,-7.05
2022-12-15T17:25:53.970Z,-7.04
2022-12-15T17:28:40.933Z,-7.01
2022-12-15T17:31:18.722Z,-7.00
2022-12-15T17:33:48.215Z,-7.00
2022-12-15T17:36:22.744Z,-7.00
2022-12-15T17:39:02.019Z,-7.00
2022-12-15T17:41:59.869Z,-6.99
2022-12-15T17:44:32.936Z,-6.98
2022-12-15T17:47:04.756Z,-6.96
2022-12-15T17:49:36.382Z,-6.95
2022-12-15T17:52:18.146Z,-6.97
2022-12-15T17:54:46.603Z,-6.97
2022-12-15T17:57:15.303Z,-6.96
2022-12-15T17:59:43.796Z,-6.96
2022-12-15T18:02:13.869Z,-6.94
2022-12-15T18:04:43.223Z,-6.91
2022-12-15T18:07:16.979Z,-6.89
2022-12-15T18:09:45.804Z,-6.87
2022-12-15T18:12:22.728Z,-6.86
2022-12-15T18:14:51.323Z,-6.85
2022-12-15T18:17:20.783Z,-6.86
2022-12-15T18:19:49.396Z,-6.86
2022-12-15T18:22:23.519Z,-6.86
2022-12-15T18:24:53.928Z,-6.86
2022-12-15T18:27:26.476Z,-6.85
2022-12-15T18:29:56.790Z,-6.85
2022-12-15T18:32:27.476Z,-6.86
2022-12-15T18:34:56.109Z,-6.87
2022-12-15T18:37:25.427Z,-6.86
2022-12-15T18:39:57.144Z,-6.85
2022-12-15T18:42:29.538Z,-6.84
2022-12-15T18:45:00.481Z,-6.83
2022-12-15T18:47:28.875Z,-6.81
2022-12-15T18:49:57.093Z,-6.80
2022-12-15T18:52:34.418Z,-6.79
2022-12-15T18:55:03.341Z,-6.78
2022-12-15T18:57:36.128Z,-6.77
2022-12-15T19:00:08.701Z,-6.74
2022-12-15T19:02:37.136Z,-6.73
2022-12-15T19:05:07.331Z,-6.72
2022-12-15T19:07:36.186Z,-6.76
2022-12-15T19:10:05.357Z,-6.70
2022-12-15T19:12:34.430Z,-6.69
2022-12-15T19:15:02.906Z,-6.68
2022-12-15T19:17:49.809Z,-6.68
2022-12-15T19:20:38.913Z,-6.67
2022-12-15T19:23:08.009Z,-6.66
2022-12-15T19:25:36.512Z,-6.64
2022-12-15T19:28:10.529Z,-6.62
2022-12-15T19:30:42.220Z,-6.58
2022-12-15T19:33:15.202Z,-6.69
2022-12-15T19:35:46.806Z,-6.55
2022-12-15T19:38:28.358Z,-6.55
2022-12-15T19:40:59.186Z,-6.56
2022-12-15T19:43:27.674Z,-6.56
2022-12-15T19:45:57.953Z,-6.57
2022-12-15T19:48:26.442Z,-6.55
2022-12-15T19:50:55.119Z,-6.52
2022-12-15T19:53:25.675Z,-6.49
2022-12-15T19:55:56.282Z,-6.46
2022-12-15T19:58:28.943Z,-6.45
2022-12-15T20:01:00.491Z,-6.46
2022-12-15T20:03:33.103Z,-6.45
2022-12-15T20:06:03.901Z,-6.43
2022-12-15T20:08:37.680Z,-6.41
2022-12-15T20:11:14.981Z,-6.39
2022-12-15T20:13:43.878Z,-6.36
2022-12-15T20:16:17.738Z,-6.35
2022-12-15T20:18:48.769Z,-6.32
2022-12-15T20:21:22.252Z,-6.32
2022-12-15T20:24:07.884Z,-6.32
2022-12-15T20:26:39.495Z,-6.39
2022-12-15T20:29:26.213Z,-6.30
2022-12-15T20:31:56.796Z,-6.28
2022-12-15T20:34:25.902Z,-6.26
2022-12-15T20:36:54.895Z,-6.23
2022-12-15T20:39:29.584Z,-6.22
2022-12-15T20:41:59.175Z,-6.19
2022-12-15T20:44:27.994Z,-6.18
2022-12-15T20:46:56.734Z,-6.16
2022-12-15T20:49:25.160Z,-6.15
2022-12-15T20:51:53.606Z,-6.14
2022-12-15T20:54:22.900Z,-6.11
2022-12-15T20:56:51.391Z,-6.08
2022-12-15T20:59:20.166Z,-6.10
2022-12-15T21:01:48.801Z,-6.12
2022-12-15T21:04:27.592Z,-6.03
2022-12-15T21:06:56.828Z,-6.01
2022-12-15T21:09:25.538Z,-5.99
2022-12-15T21:11:55.295Z,-5.96
2022-12-15T21:14:24.889Z,-5.94
2022-12-15T21:16:53.661Z,-5.92
2022-12-15T21:19:22.991Z,-5.92
2022-12-15T21:21:55.430Z,-5.92
2022-12-15T21:24:27.270Z,-5.91
2022-12-15T21:26:56.297Z,-5.90
2022-12-15T21:29:27.880Z,-5.98
2022-12-15T21:31:56.387Z,-5.90
2022-12-15T21:34:24.705Z,-5.90
2022-12-15T21:36:55.017Z,-5.89
2022-12-15T21:39:31.176Z,-5.88
2022-12-15T21:42:03.363Z,-5.86
2022-12-15T21:44:31.817Z,-5.85
2022-12-15T21:47:00.452Z,-5.84
2022-12-15T21:49:29.294Z,-5.83
2022-12-15T21:52:00.362Z,-5.83
2022-12-15T21:54:35.005Z,-5.82
2022-12-15T21:57:03.931Z,-5.81
2022-12-15T21:59:33.331Z,-5.80
2022-12-15T22:02:02.609Z,-5.78
2022-12-15T22:04:34.554Z,-6.07
2022-12-15T22:07:03.437Z,-5.75
2022-12-15T22:09:31.972Z,-5.73
2022-12-15T22:12:01.332Z,-5.73
2022-12-15T22:14:34.382Z,-5.73
2022-12-15T22:17:12.572Z,-5.73
2022-12-15T22:19:41.056Z,-5.73
2022-12-15T22:22:09.451Z,-5.72
2022-12-15T22:24:38.275Z,-5.70
2022-12-15T22:27:17.958Z,-5.68
2022-12-15T22:29:47.231Z,-5.66
2022-12-15T22:32:17.439Z,-5.67
2022-12-15T22:34:45.862Z,-5.70
2022-12-15T22:37:14.425Z,-5.59
2022-12-15T22:39:42.875Z,-5.59
2022-12-15T22:42:16.966Z,-5.59
2022-12-15T22:44:46.085Z,-5.59
2022-12-15T22:47:14.914Z,-5.58
2022-12-15T22:49:43.542Z,-5.58
2022-12-15T22:52:20.621Z,-5.57
2022-12-15T22:54:49.098Z,-5.57
2022-12-15T22:57:26.183Z,-5.57
2022-12-15T23:00:05.000Z,-5.58
2022-12-15T23:02:37.001Z,-5.60
2022-12-15T23:05:06.724Z,-5.59
2022-12-15T23:07:35.764Z,-5.58
2022-12-15T23:10:23.647Z,-5.58
2022-12-15T23:12:54.875Z,-5.58
2022-12-15T23:15:44.331Z,-5.57
2022-12-15T23:18:13.663Z,-5.56
2022-12-15T23:20:42.633Z,-5.65
2022-12-15T23:23:11.122Z,-5.56
2022-12-15T23:25:39.581Z,-5.58
2022-12-15T23:28:08.344Z,-5.56
2022-12-15T23:30:36.851Z,-5.55
2022-12-15T23:33:05.718Z,-5.53
2022-12-15T23:35:34.181Z,-5.52
2022-12-15T23:38:03.076Z,-5.49
2022-12-15T23:40:31.389Z,-5.48
2022-12-15T23:43:00.753Z,-5.51
2022-12-15T23:45:29.094Z,-5.52
2022-12-15T23:47:57.556Z,-5.52
2022-12-15T23:50:26.472Z,-5.54
2022-12-15T23:52:54.906Z,-5.57
2022-12-15T23:55:23.326Z,-5.68
2022-12-15T23:57:51.936Z,-5.61
